createdAt,value
2019-02-25T00:00:12.878Z,1027.89
2019-02-25T00:00:53.293Z,1027.87
2019-02-25T00:01:33.713Z,1027.89
2019-02-25T00:02:14.126Z,1027.85
2019-02-25T00:02:54.524Z,1027.86
2019-02-25T00:03:34.937Z,1027.86
2019-02-25T00:04:15.329Z,1027.85
2019-02-25T00:04:55.745Z,1027.87
2019-02-25T00:05:36.135Z,1027.85
2019-02-25T00:06:16.500Z,1027.87
2019-02-25T00:06:56.912Z,1027.82
2019-02-25T00:07:37.311Z,1027.84
2019-02-25T00:08:17.682Z,1027.85
2019-02-25T00:08:58.047Z,1027.81
2019-02-25T00:09:38.451Z,1027.78
2019-02-25T00:10:18.851Z,1027.77
2019-02-25T00:10:59.243Z,1027.81
2019-02-25T00:11:39.657Z,1027.82
2019-02-25T00:12:20.018Z,1027.84
2019-02-25T00:13:00.420Z,1027.81
2019-02-25T00:13:40.854Z,1027.83
2019-02-25T00:14:21.245Z,1027.88
2019-02-25T00:15:01.656Z,1027.87
2019-02-25T00:15:42.020Z,1027.87
2019-02-25T00:16:24.098Z,1027.83
2019-02-25T00:17:04.487Z,1027.86
2019-02-25T00:17:44.907Z,1027.85
2019-02-25T00:18:25.284Z,1027.84
2019-02-25T00:19:05.693Z,1027.82
2019-02-25T00:19:46.129Z,1027.79
2019-02-25T00:20:26.466Z,1027.78
2019-02-25T00:21:06.842Z,1027.73
2019-02-25T00:21:47.256Z,1027.79
2019-02-25T00:22:27.707Z,1027.75
2019-02-25T00:23:08.078Z,1027.76
2019-02-25T00:23:48.481Z,1027.77
2019-02-25T00:24:28.863Z,1027.78
2019-02-25T00:25:18.856Z,1027.75
2019-02-25T00:25:59.380Z,1027.75
2019-02-25T00:26:39.766Z,1027.74
2019-02-25T00:27:20.190Z,1027.71
2019-02-25T00:28:00.628Z,1027.7
2019-02-25T00:28:41.053Z,1027.73
2019-02-25T00:29:21.437Z,1027.74
2019-02-25T00:30:01.853Z,1027.7
2019-02-25T00:30:52.764Z,1027.73
2019-02-25T00:31:33.176Z,1027.74
2019-02-25T00:32:13.622Z,1027.76
2019-02-25T00:32:53.987Z,1027.75
2019-02-25T00:33:34.412Z,1027.75
2019-02-25T00:34:14.826Z,1027.74
2019-02-25T00:34:55.225Z,1027.76
2019-02-25T00:35:35.636Z,1027.76
2019-02-25T00:36:16.044Z,1027.77
2019-02-25T00:36:56.404Z,1027.78
2019-02-25T00:37:36.799Z,1027.78
2019-02-25T00:38:17.203Z,1027.73
2019-02-25T00:38:57.592Z,1027.77
2019-02-25T00:39:37.946Z,1027.8
2019-02-25T00:40:18.337Z,1027.78
2019-02-25T00:40:58.758Z,1027.76
2019-02-25T00:41:40.971Z,1027.77
2019-02-25T00:42:21.374Z,1027.8
2019-02-25T00:43:01.773Z,1027.79
2019-02-25T00:43:42.186Z,1027.83
2019-02-25T00:44:22.564Z,1027.85
2019-02-25T00:45:02.978Z,1027.82
2019-02-25T00:45:43.349Z,1027.83
2019-02-25T00:46:23.744Z,1027.84
2019-02-25T00:47:04.127Z,1027.8
2019-02-25T00:47:44.508Z,1027.79
2019-02-25T00:48:24.910Z,1027.82
2019-02-25T00:49:05.290Z,1027.84
2019-02-25T00:49:45.657Z,1027.84
2019-02-25T00:50:26.054Z,1027.77
2019-02-25T00:51:06.430Z,1027.8
2019-02-25T00:51:46.828Z,1027.8
2019-02-25T00:52:27.293Z,1027.8
2019-02-25T00:53:07.684Z,1027.81
2019-02-25T00:53:48.077Z,1027.84
2019-02-25T00:54:28.463Z,1027.89
2019-02-25T00:55:08.826Z,1027.86
2019-02-25T00:55:49.231Z,1027.91
2019-02-25T00:56:29.655Z,1027.9
2019-02-25T00:57:10.042Z,1027.85
2019-02-25T00:57:50.450Z,1027.83
2019-02-25T00:58:30.832Z,1027.81
2019-02-25T00:59:11.201Z,1027.83
2019-02-25T00:59:51.627Z,1027.84
2019-02-25T01:00:32.062Z,1027.81
2019-02-25T01:01:12.425Z,1027.8
2019-02-25T01:01:52.821Z,1027.77
2019-02-25T01:02:33.232Z,1027.8
2019-02-25T01:03:13.691Z,1027.79
2019-02-25T01:03:54.099Z,1027.78
2019-02-25T01:04:34.455Z,1027.79
2019-02-25T01:05:14.834Z,1027.76
2019-02-25T01:05:55.255Z,1027.78
2019-02-25T01:06:35.614Z,1027.78
2019-02-25T01:07:16.061Z,1027.76
2019-02-25T01:07:56.458Z,1027.77
2019-02-25T01:08:36.865Z,1027.76
2019-02-25T01:09:17.280Z,1027.8
2019-02-25T01:09:57.897Z,1027.79
2019-02-25T01:10:38.272Z,1027.81
2019-02-25T01:11:18.672Z,1027.83
2019-02-25T01:11:59.097Z,1027.87
2019-02-25T01:12:39.455Z,1027.88
2019-02-25T01:13:19.885Z,1027.9
2019-02-25T01:14:00.268Z,1027.92
2019-02-25T01:14:40.704Z,1027.92
2019-02-25T01:15:21.056Z,1027.88
2019-02-25T01:16:01.492Z,1027.9
2019-02-25T01:16:41.857Z,1027.92
2019-02-25T01:17:22.263Z,1027.92
2019-02-25T01:18:02.646Z,1027.9
2019-02-25T01:18:43.047Z,1027.93
2019-02-25T01:19:23.473Z,1027.92
2019-02-25T01:20:03.857Z,1027.88
2019-02-25T01:20:44.225Z,1027.89
2019-02-25T01:21:24.598Z,1027.86
2019-02-25T01:22:04.986Z,1027.9
2019-02-25T01:22:45.377Z,1027.93
2019-02-25T01:23:25.776Z,1027.93
2019-02-25T01:24:06.132Z,1027.93
2019-02-25T01:24:46.502Z,1027.94
2019-02-25T01:25:26.880Z,1027.95
2019-02-25T01:26:07.282Z,1027.92
2019-02-25T01:26:47.676Z,1027.91
2019-02-25T01:27:28.075Z,1027.91
2019-02-25T01:28:08.435Z,1027.9
2019-02-25T01:28:48.853Z,1027.86
2019-02-25T01:29:29.220Z,1027.84
2019-02-25T01:31:36.083Z,1027.86
2019-02-25T01:34:10.700Z,1027.8
2019-02-25T01:34:50.763Z,1027.84
2019-02-25T01:35:31.137Z,1027.82
2019-02-25T01:36:11.529Z,1027.83
2019-02-25T01:36:51.924Z,1027.84
2019-02-25T01:37:32.340Z,1027.82
2019-02-25T01:38:12.727Z,1027.86
2019-02-25T01:38:53.130Z,1027.84
2019-02-25T01:39:33.522Z,1027.85
2019-02-25T01:49:26.347Z,1027.94
2019-02-25T01:50:15.128Z,1027.91
2019-02-25T01:51:03.888Z,1027.97
2019-02-25T01:51:52.523Z,1027.93
2019-02-25T01:52:43.573Z,1027.9
2019-02-25T01:53:34.646Z,1027.88
2019-02-25T01:54:25.855Z,1027.87
2019-02-25T01:55:17.993Z,1027.82
2019-02-25T01:56:06.436Z,1027.83
2019-02-25T01:56:55.361Z,1027.84
2019-02-25T01:57:45.693Z,1027.8
2019-02-25T01:58:34.213Z,1027.8
2019-02-25T01:59:25.015Z,1027.8
2019-02-25T02:00:15.121Z,1027.83
2019-02-25T02:01:06.033Z,1027.87
2019-02-25T02:01:59.001Z,1027.83
2019-02-25T02:02:47.357Z,1027.87
2019-02-25T02:03:36.908Z,1027.87
2019-02-25T02:04:26.836Z,1027.89
2019-02-25T02:05:14.888Z,1027.89
2019-02-25T02:06:07.165Z,1027.93
2019-02-25T02:06:58.827Z,1027.91
2019-02-25T02:07:51.297Z,1027.93
2019-02-25T02:08:39.503Z,1027.94
2019-02-25T02:09:31.318Z,1027.94
2019-02-25T02:10:21.605Z,1027.95
2019-02-25T02:11:11.440Z,1028.02
2019-02-25T02:12:03.484Z,1028.03
2019-02-25T02:12:53.222Z,1027.98
2019-02-25T02:15:27.685Z,1028.04
2019-02-25T02:16:07.976Z,1028.01
2019-02-25T02:16:48.404Z,1028.01
2019-02-25T02:17:28.843Z,1028.01
2019-02-25T02:18:09.190Z,1028.01
2019-02-25T02:18:49.583Z,1028.02
2019-02-25T02:19:29.970Z,1028
2019-02-25T02:20:10.368Z,1027.98
2019-02-25T02:20:50.778Z,1028.01
2019-02-25T02:21:31.190Z,1027.98
2019-02-25T02:22:11.572Z,1027.95
2019-02-25T02:22:51.986Z,1027.97
2019-02-25T02:23:32.398Z,1027.92
2019-02-25T02:24:12.825Z,1027.92
2019-02-25T02:24:53.239Z,1027.92
2019-02-25T02:25:33.638Z,1027.89
2019-02-25T02:26:14.017Z,1027.87
2019-02-25T02:26:54.428Z,1027.87
2019-02-25T02:27:34.839Z,1027.84
2019-02-25T02:28:15.253Z,1027.88
2019-02-25T02:28:55.673Z,1027.88
2019-02-25T02:29:36.064Z,1027.83
2019-02-25T02:30:16.481Z,1027.87
2019-02-25T02:30:56.856Z,1027.86
2019-02-25T02:31:37.246Z,1027.82
2019-02-25T02:32:17.627Z,1027.83
2019-02-25T02:32:58.016Z,1027.89
2019-02-25T02:33:38.418Z,1027.87
2019-02-25T02:34:18.823Z,1027.84
2019-02-25T02:34:59.168Z,1027.85
2019-02-25T02:35:39.625Z,1027.9
2019-02-25T02:36:19.962Z,1027.9
2019-02-25T02:37:00.369Z,1027.89
2019-02-25T02:37:42.422Z,1027.91
2019-02-25T02:38:22.744Z,1027.95
2019-02-25T02:39:03.193Z,1027.92
2019-02-25T02:39:43.574Z,1027.9
2019-02-25T02:40:23.996Z,1027.93
2019-02-25T02:41:04.409Z,1027.95
2019-02-25T02:41:44.808Z,1027.96
2019-02-25T02:42:25.270Z,1028
2019-02-25T02:43:05.620Z,1027.98
2019-02-25T02:43:46.033Z,1027.98
2019-02-25T02:44:26.416Z,1028.01
2019-02-25T02:45:06.829Z,1028
2019-02-25T02:45:47.230Z,1028
2019-02-25T02:46:27.603Z,1028.03
2019-02-25T02:47:08.005Z,1028.01
2019-02-25T02:47:48.387Z,1028.04
2019-02-25T02:48:28.773Z,1028.03
2019-02-25T02:49:09.155Z,1028.03
2019-02-25T02:49:49.548Z,1028.05
2019-02-25T02:50:29.933Z,1028.1
2019-02-25T02:51:10.319Z,1028.06
2019-02-25T02:51:50.729Z,1028.09
2019-02-25T02:52:31.128Z,1028.12
2019-02-25T02:53:11.549Z,1028.11
2019-02-25T02:53:52.041Z,1028.16
2019-02-25T02:54:32.407Z,1028.18
2019-02-25T02:55:12.809Z,1028.22
2019-02-25T02:55:53.213Z,1028.22
2019-02-25T02:56:33.621Z,1028.27
2019-02-25T02:57:14.039Z,1028.26
2019-02-25T02:57:54.429Z,1028.26
2019-02-25T02:58:34.820Z,1028.23
2019-02-25T02:59:15.228Z,1028.22
2019-02-25T02:59:55.663Z,1028.25
2019-02-25T03:00:36.027Z,1028.24
2019-02-25T03:01:16.456Z,1028.22
2019-02-25T03:01:56.833Z,1028.25
2019-02-25T03:02:37.223Z,1028.26
2019-02-25T03:03:17.616Z,1028.26
2019-02-25T03:03:58.058Z,1028.29
2019-02-25T03:04:38.391Z,1028.29
2019-02-25T03:05:18.832Z,1028.3
2019-02-25T03:05:59.216Z,1028.31
2019-02-25T03:06:39.630Z,1028.3
2019-02-25T03:07:20.014Z,1028.34
2019-02-25T03:08:00.453Z,1028.29
2019-02-25T03:08:40.841Z,1028.27
2019-02-25T03:09:21.245Z,1028.3
2019-02-25T03:10:01.669Z,1028.29
2019-02-25T03:10:42.057Z,1028.29
2019-02-25T03:11:22.468Z,1028.26
2019-02-25T03:12:02.894Z,1028.27
2019-02-25T03:12:43.285Z,1028.26
2019-02-25T03:13:23.687Z,1028.25
2019-02-25T03:14:04.069Z,1028.23
2019-02-25T03:18:11.377Z,1028.08
2019-02-25T03:19:02.001Z,1028.09
2019-02-25T03:19:50.035Z,1028.07
2019-02-25T03:20:39.939Z,1028.09
2019-02-25T03:21:29.922Z,1028.09
2019-02-25T03:22:21.314Z,1028.07
2019-02-25T03:23:07.704Z,1028.07
2019-02-25T03:23:48.170Z,1028.07
2019-02-25T03:24:28.633Z,1028.03
2019-02-25T03:25:09.217Z,1028.07
2019-02-25T03:25:49.709Z,1028.01
2019-02-25T03:26:30.041Z,1028.02
2019-02-25T03:27:10.450Z,1028
2019-02-25T03:27:50.845Z,1028
2019-02-25T03:28:31.354Z,1028.03
2019-02-25T03:29:11.798Z,1028.02
2019-02-25T03:29:52.355Z,1028
2019-02-25T03:30:32.691Z,1027.98
2019-02-25T03:31:13.104Z,1027.96
2019-02-25T03:31:53.555Z,1027.92
2019-02-25T03:32:34.040Z,1027.91
2019-02-25T03:33:14.473Z,1027.88
2019-02-25T03:33:54.946Z,1027.89
2019-02-25T03:34:35.399Z,1027.86
2019-02-25T03:35:15.776Z,1027.86
2019-02-25T03:35:56.178Z,1027.83
2019-02-25T03:36:36.541Z,1027.84
2019-02-25T03:37:17.055Z,1027.84
2019-02-25T03:37:57.374Z,1027.81
2019-02-25T03:38:37.861Z,1027.83
2019-02-25T03:39:18.439Z,1027.79
2019-02-25T03:39:59.132Z,1027.78
2019-02-25T03:40:39.418Z,1027.76
2019-02-25T03:41:19.979Z,1027.8
2019-02-25T03:42:00.651Z,1027.76
2019-02-25T03:42:41.077Z,1027.79
2019-02-25T03:43:21.568Z,1027.79
2019-02-25T03:44:02.288Z,1027.79
2019-02-25T03:44:42.670Z,1027.76
2019-02-25T03:45:23.401Z,1027.8
2019-02-25T03:46:04.068Z,1027.79
2019-02-25T03:46:44.735Z,1027.79
2019-02-25T03:47:25.194Z,1027.76
2019-02-25T03:48:05.702Z,1027.77
2019-02-25T03:48:46.295Z,1027.75
2019-02-25T03:49:26.711Z,1027.72
2019-02-25T03:50:07.254Z,1027.75
2019-02-25T03:50:47.802Z,1027.72
2019-02-25T03:51:28.277Z,1027.73
2019-02-25T03:52:08.854Z,1027.73
2019-02-25T03:52:49.301Z,1027.74
2019-02-25T03:53:29.905Z,1027.73
2019-02-25T03:54:10.229Z,1027.75
2019-02-25T03:54:50.796Z,1027.75
2019-02-25T03:55:31.130Z,1027.72
2019-02-25T03:56:11.556Z,1027.79
2019-02-25T03:56:52.174Z,1027.79
2019-02-25T03:57:32.699Z,1027.79
2019-02-25T03:58:12.972Z,1027.83
2019-02-25T03:58:53.378Z,1027.84
2019-02-25T03:59:33.772Z,1027.85
2019-02-25T04:00:14.157Z,1027.86
2019-02-25T04:00:54.602Z,1027.88
2019-02-25T04:01:35.080Z,1027.91
2019-02-25T04:02:15.539Z,1027.92
2019-02-25T04:02:55.927Z,1027.95
2019-02-25T04:03:36.281Z,1027.93
2019-02-25T04:04:16.734Z,1027.94
2019-02-25T04:04:57.132Z,1027.94
2019-02-25T04:05:37.487Z,1027.98
2019-02-25T04:06:17.898Z,1027.98
2019-02-25T04:06:58.289Z,1027.97
2019-02-25T04:07:38.720Z,1028
2019-02-25T04:08:19.173Z,1027.98
2019-02-25T04:08:59.620Z,1027.98
2019-02-25T04:09:40.018Z,1027.97
2019-02-25T04:10:20.550Z,1027.94
2019-02-25T04:11:01.009Z,1027.96
2019-02-25T04:11:41.533Z,1028
2019-02-25T04:12:22.222Z,1027.96
2019-02-25T04:13:02.368Z,1027.97
2019-02-25T04:13:42.798Z,1027.96
2019-02-25T04:14:23.229Z,1028.01
2019-02-25T04:15:03.581Z,1028.01
2019-02-25T04:15:44.089Z,1028.02
2019-02-25T04:16:24.422Z,1027.99
2019-02-25T04:17:04.880Z,1028.03
2019-02-25T04:17:45.454Z,1028.03
2019-02-25T04:18:25.813Z,1028.05
2019-02-25T04:19:06.376Z,1028.02
2019-02-25T04:19:46.965Z,1028.07
2019-02-25T04:20:27.395Z,1028.07
2019-02-25T04:21:08.010Z,1028.08
2019-02-25T04:21:48.539Z,1028.08
2019-02-25T04:22:29.090Z,1028.09
2019-02-25T04:23:09.689Z,1028.08
2019-02-25T04:23:50.747Z,1028.1
2019-02-25T04:24:30.883Z,1028.06
2019-02-25T04:25:11.362Z,1028.12
2019-02-25T04:25:52.681Z,1028.1
2019-02-25T04:26:33.460Z,1028.09
2019-02-25T04:27:14.501Z,1028.07
2019-02-25T04:27:54.725Z,1028.07
2019-02-25T04:28:35.716Z,1028.04
2019-02-25T05:06:29.652Z,1027.87
2019-02-25T05:07:09.602Z,1027.9
2019-02-25T05:07:50.153Z,1027.87
2019-02-25T05:08:31.111Z,1027.88
2019-02-25T05:09:11.604Z,1027.93
2019-02-25T05:09:52.014Z,1027.9
2019-02-25T05:10:32.500Z,1027.89
2019-02-25T05:11:12.863Z,1027.9
2019-02-25T05:11:53.287Z,1027.84
2019-02-25T05:12:33.656Z,1027.83
2019-02-25T05:13:14.078Z,1027.82
2019-02-25T05:13:54.550Z,1027.83
2019-02-25T05:14:35.274Z,1027.79
2019-02-25T05:15:15.766Z,1027.81
2019-02-25T05:15:56.030Z,1027.82
2019-02-25T05:16:43.433Z,1027.76
2019-02-25T05:17:23.852Z,1027.77
2019-02-25T05:18:04.257Z,1027.72
2019-02-25T05:18:44.729Z,1027.73
2019-02-25T05:19:25.024Z,1027.73
2019-02-25T05:20:05.465Z,1027.76
2019-02-25T05:20:45.791Z,1027.71
2019-02-25T05:21:26.209Z,1027.75
2019-02-25T05:22:06.572Z,1027.74
2019-02-25T05:22:46.987Z,1027.72
2019-02-25T05:23:27.378Z,1027.72
2019-02-25T05:24:07.767Z,1027.76
2019-02-25T05:24:48.147Z,1027.77
2019-02-25T05:25:28.562Z,1027.71
2019-02-25T05:26:08.988Z,1027.76
2019-02-25T05:26:49.334Z,1027.76
2019-02-25T05:27:29.767Z,1027.79
2019-02-25T05:28:10.258Z,1027.79
2019-02-25T05:28:50.670Z,1027.83
2019-02-25T05:29:31.023Z,1027.82
2019-02-25T05:30:11.448Z,1027.84
2019-02-25T05:30:51.803Z,1027.84
2019-02-25T05:31:32.248Z,1027.81
2019-02-25T05:32:12.613Z,1027.82
2019-02-25T05:32:52.954Z,1027.83
2019-02-25T05:33:33.368Z,1027.84
2019-02-25T05:34:13.750Z,1027.81
2019-02-25T05:34:54.165Z,1027.84
2019-02-25T05:35:34.519Z,1027.85
2019-02-25T05:36:14.988Z,1027.85
2019-02-25T05:36:55.403Z,1027.84
2019-02-25T05:37:35.789Z,1027.82
2019-02-25T05:38:16.241Z,1027.82
2019-02-25T05:38:58.627Z,1027.85
2019-02-25T05:39:37.021Z,1027.82
2019-02-25T05:40:17.467Z,1027.82
2019-02-25T05:40:57.848Z,1027.87
2019-02-25T05:41:38.391Z,1027.81
2019-02-25T05:42:18.756Z,1027.82
2019-02-25T05:42:59.083Z,1027.83
2019-02-25T05:43:39.550Z,1027.87
2019-02-25T05:44:19.998Z,1027.84
2019-02-25T05:45:00.308Z,1027.85
2019-02-25T05:45:40.755Z,1027.84
2019-02-25T05:46:21.100Z,1027.83
2019-02-25T05:47:01.540Z,1027.84
2019-02-25T05:47:41.887Z,1027.78
2019-02-25T05:48:22.309Z,1027.78
2019-02-25T05:49:05.093Z,1027.83
2019-02-25T05:49:45.502Z,1027.84
2019-02-25T05:50:25.962Z,1027.79
2019-02-25T05:51:06.334Z,1027.81
2019-02-25T05:51:46.720Z,1027.81
2019-02-25T05:52:27.120Z,1027.81
2019-02-25T05:53:07.565Z,1027.81
2019-02-25T05:53:47.999Z,1027.81
2019-02-25T05:54:28.421Z,1027.83
2019-02-25T05:55:08.775Z,1027.77
2019-02-25T05:55:49.169Z,1027.82
2019-02-25T05:56:29.581Z,1027.81
2019-02-25T05:57:09.993Z,1027.87
2019-02-25T05:57:50.375Z,1027.85
2019-02-25T05:58:30.766Z,1027.83
2019-02-25T05:59:11.179Z,1027.83
2019-02-25T05:59:51.517Z,1027.85
2019-02-25T06:00:31.891Z,1027.85
2019-02-25T06:01:12.309Z,1027.86
2019-02-25T06:01:52.659Z,1027.85
2019-02-25T06:02:33.041Z,1027.84
2019-02-25T06:03:13.430Z,1027.85
2019-02-25T06:03:53.862Z,1027.82
2019-02-25T06:04:34.347Z,1027.84
2019-02-25T06:05:14.771Z,1027.84
2019-02-25T06:05:55.085Z,1027.86
2019-02-25T06:06:35.559Z,1027.87
2019-02-25T06:07:15.985Z,1027.86
2019-02-25T06:07:56.428Z,1027.93
2019-02-25T06:08:36.794Z,1027.96
2019-02-25T06:09:17.170Z,1027.95
2019-02-25T06:09:57.600Z,1027.96
2019-02-25T06:10:37.969Z,1027.94
2019-02-25T06:11:18.368Z,1027.96
2019-02-25T06:11:58.775Z,1027.95
2019-02-25T06:12:39.166Z,1027.95
2019-02-25T06:13:19.569Z,1027.96
2019-02-25T06:13:59.964Z,1027.96
2019-02-25T06:14:40.357Z,1027.97
2019-02-25T06:15:20.769Z,1027.96
2019-02-25T06:16:01.228Z,1027.94
2019-02-25T06:16:41.595Z,1027.96
2019-02-25T06:26:54.423Z,1027.99
2019-02-25T06:27:50.467Z,1027.96
2019-02-25T06:28:46.584Z,1027.98
2019-02-25T06:29:43.559Z,1027.96
2019-02-25T06:30:41.305Z,1027.99
2019-02-25T06:31:34.322Z,1027.98
2019-02-25T06:32:32.104Z,1028
2019-02-25T06:33:27.559Z,1028.03
2019-02-25T06:37:58.348Z,1028
2019-02-25T06:38:47.534Z,1028
2019-02-25T06:41:26.689Z,1027.94
2019-02-25T06:42:06.857Z,1027.94
2019-02-25T06:42:47.266Z,1027.95
2019-02-25T06:43:27.663Z,1027.95
2019-02-25T06:48:27.335Z,1027.96
2019-02-25T06:49:06.390Z,1028
2019-02-25T06:49:46.942Z,1027.97
2019-02-25T06:50:27.340Z,1027.97
2019-02-25T06:51:08.708Z,1028.01
2019-02-25T06:51:49.162Z,1028.01
2019-02-25T06:52:29.620Z,1028.01
2019-02-25T06:53:10.047Z,1028.04
2019-02-25T06:53:50.454Z,1027.99
2019-02-25T06:54:30.817Z,1028
2019-02-25T06:55:11.259Z,1028.03
2019-02-25T06:55:51.599Z,1028.04
2019-02-25T06:56:32.009Z,1028.06
2019-02-25T06:57:12.584Z,1028.07
2019-02-25T06:57:53.022Z,1028.11
2019-02-25T06:58:33.474Z,1028.11
2019-02-25T06:59:13.966Z,1028.12
2019-02-25T06:59:54.484Z,1028.1
2019-02-25T07:00:34.863Z,1028.12
2019-02-25T07:01:15.296Z,1028.09
2019-02-25T07:01:55.695Z,1028.09
2019-02-25T07:02:36.089Z,1028.1
2019-02-25T07:03:16.832Z,1028.09
2019-02-25T07:03:57.253Z,1028.06
2019-02-25T07:04:37.566Z,1028.07
2019-02-25T07:05:17.936Z,1028.06
2019-02-25T07:05:58.362Z,1028.06
2019-02-25T07:08:41.493Z,1028.07
2019-02-25T07:10:39.763Z,1028.13
2019-02-25T07:11:20.109Z,1028.14
2019-02-25T07:12:01.404Z,1028.11
2019-02-25T07:12:41.234Z,1028.14
2019-02-25T07:13:21.742Z,1028.12
2019-02-25T07:14:02.259Z,1028.16
2019-02-25T07:14:42.822Z,1028.19
2019-02-25T07:15:23.208Z,1028.13
2019-02-25T07:16:03.621Z,1028.18
2019-02-25T07:16:44.013Z,1028.12
2019-02-25T07:17:24.364Z,1028.17
2019-02-25T07:18:06.696Z,1028.18
2019-02-25T07:18:47.891Z,1028.22
2019-02-25T07:19:28.252Z,1028.19
2019-02-25T07:20:08.769Z,1028.25
2019-02-25T07:20:49.914Z,1028.28
2019-02-25T07:21:31.219Z,1028.27
2019-02-25T07:22:10.834Z,1028.27
2019-02-25T07:22:51.291Z,1028.31
2019-02-25T07:23:31.753Z,1028.34
2019-02-25T07:24:12.153Z,1028.36
2019-02-25T07:24:53.103Z,1028.36
2019-02-25T07:25:33.007Z,1028.4
2019-02-25T07:26:13.509Z,1028.35
2019-02-25T07:26:53.847Z,1028.39
2019-02-25T07:27:34.320Z,1028.36
2019-02-25T07:28:14.704Z,1028.38
2019-02-25T07:28:55.124Z,1028.32
2019-02-25T07:29:36.218Z,1028.31
2019-02-25T07:30:16.294Z,1028.33
2019-02-25T07:30:57.685Z,1028.31
2019-02-25T07:31:37.790Z,1028.31
2019-02-25T07:32:18.352Z,1028.34
2019-02-25T07:32:58.829Z,1028.34
2019-02-25T07:33:39.344Z,1028.35
2019-02-25T07:34:20.204Z,1028.33
2019-02-25T07:35:00.490Z,1028.33
2019-02-25T07:35:40.984Z,1028.31
2019-02-25T07:36:21.446Z,1028.28
2019-02-25T07:37:02.889Z,1028.32
2019-02-25T07:37:44.221Z,1028.32
2019-02-25T07:38:25.099Z,1028.34
2019-02-25T07:39:06.459Z,1028.36
2019-02-25T07:39:46.950Z,1028.33
2019-02-25T07:45:20.642Z,1028.33
2019-02-25T07:46:01.076Z,1028.29
2019-02-25T07:46:42.232Z,1028.28
2019-02-25T07:47:22.809Z,1028.29
2019-02-25T07:48:03.578Z,1028.28
2019-02-25T07:48:44.708Z,1028.32
2019-02-25T07:49:24.986Z,1028.31
2019-02-25T07:50:05.977Z,1028.31
2019-02-25T07:50:47.555Z,1028.35
2019-02-25T07:51:27.466Z,1028.32
2019-02-25T07:52:08.081Z,1028.29
2019-02-25T07:52:48.728Z,1028.3
2019-02-25T07:53:29.489Z,1028.29
2019-02-25T07:54:09.904Z,1028.33
2019-02-25T07:54:50.703Z,1028.3
2019-02-25T07:55:31.333Z,1028.31
2019-02-25T07:56:11.812Z,1028.31
2019-02-25T07:56:52.218Z,1028.32
2019-02-25T07:57:32.606Z,1028.35
2019-02-25T07:58:13.157Z,1028.37
2019-02-25T07:58:53.528Z,1028.37
2019-02-25T07:59:34.041Z,1028.39
2019-02-25T08:04:54.107Z,1028.37
2019-02-25T08:06:00.590Z,1028.36
2019-02-25T08:07:05.641Z,1028.39
2019-02-25T08:08:06.554Z,1028.43
2019-02-25T08:09:14.174Z,1028.45
2019-02-25T08:10:26.918Z,1028.42
2019-02-25T11:07:30.757Z,1028.73
2019-02-25T11:08:11.965Z,1028.75
2019-02-25T11:08:50.841Z,1028.78
2019-02-25T11:09:31.317Z,1028.85
2019-02-25T11:10:15.647Z,1028.83
2019-02-25T11:10:55.466Z,1028.83
2019-02-25T11:11:38.587Z,1028.79
2019-02-25T11:12:21.557Z,1028.8
2019-02-25T11:13:02.087Z,1028.83
2019-02-25T11:13:41.701Z,1028.82
2019-02-25T11:14:22.334Z,1028.81
2019-02-25T11:15:05.212Z,1028.83
2019-02-25T11:15:47.867Z,1028.79
2019-02-25T11:16:28.119Z,1028.8
2019-02-25T11:17:08.542Z,1028.69
2019-02-25T11:17:49.669Z,1028.7
2019-02-25T11:18:29.760Z,1028.75
2019-02-25T11:19:11.214Z,1028.77
2019-02-25T11:19:51.677Z,1028.78
2019-02-25T11:20:33.381Z,1028.78
2019-02-25T11:21:12.577Z,1028.75
2019-02-25T11:21:53.966Z,1028.79
2019-02-25T11:22:34.427Z,1028.74
2019-02-25T11:23:16.967Z,1028.72
2019-02-25T11:23:55.357Z,1028.7
2019-02-25T11:24:35.788Z,1028.69
2019-02-25T11:25:19.370Z,1028.74
2019-02-25T11:25:59.996Z,1028.76
2019-02-25T11:26:39.644Z,1028.77
2019-02-25T11:27:20.135Z,1028.72
2019-02-25T11:28:00.529Z,1028.69
2019-02-25T11:28:41.698Z,1028.68
2019-02-25T11:29:21.288Z,1028.69
2019-02-25T11:30:01.691Z,1028.72
2019-02-25T11:30:43.079Z,1028.64
2019-02-25T11:31:24.604Z,1028.61
2019-02-25T11:32:02.893Z,1028.63
2019-02-25T11:32:43.394Z,1028.65
2019-02-25T11:33:25.155Z,1028.62
2019-02-25T11:34:05.691Z,1028.63
2019-02-25T11:34:44.597Z,1028.58
2019-02-25T11:35:24.933Z,1028.57
2019-02-25T11:36:05.369Z,1028.6
2019-02-25T11:36:48.123Z,1028.58
2019-02-25T11:37:27.214Z,1028.59
2019-02-25T11:38:12.610Z,1028.62
2019-02-25T11:38:53.073Z,1028.61
2019-02-25T11:39:34.948Z,1028.52
2019-02-25T11:40:16.530Z,1028.51
2019-02-25T11:40:57.014Z,1028.52
2019-02-25T11:41:39.200Z,1028.51
2019-02-25T11:42:20.520Z,1028.46
2019-02-25T11:42:58.249Z,1028.43
2019-02-25T11:43:38.671Z,1028.49
2019-02-25T11:44:21.009Z,1028.45
2019-02-25T11:45:01.475Z,1028.42
2019-02-25T11:45:40.057Z,1028.37
2019-02-25T11:48:11.669Z,1028.37
2019-02-25T11:48:52.114Z,1028.33
2019-02-25T11:49:32.581Z,1028.31
2019-02-25T11:50:12.948Z,1028.33
2019-02-25T11:50:53.347Z,1028.35
2019-02-25T11:51:33.811Z,1028.32
2019-02-25T11:52:14.186Z,1028.29
2019-02-25T11:52:54.707Z,1028.3
2019-02-25T11:53:35.191Z,1028.29
2019-02-25T11:54:15.623Z,1028.27
2019-02-25T11:54:56.001Z,1028.29
2019-02-25T11:55:36.431Z,1028.26
2019-02-25T11:56:16.875Z,1028.31
2019-02-25T11:56:57.395Z,1028.32
2019-02-25T11:57:37.684Z,1028.31
2019-02-25T11:58:18.148Z,1028.26
2019-02-25T11:58:58.546Z,1028.27
2019-02-25T11:59:38.952Z,1028.26
2019-02-25T12:00:19.387Z,1028.23
2019-02-25T12:00:59.816Z,1028.25
2019-02-25T12:01:40.663Z,1028.21
2019-02-25T12:02:25.411Z,1028.14
2019-02-25T12:03:03.259Z,1028.15
2019-02-25T12:03:44.168Z,1028.17
2019-02-25T12:04:25.046Z,1028.11
2019-02-25T12:05:05.847Z,1028.16
2019-02-25T12:05:48.047Z,1028.17
2019-02-25T12:06:29.183Z,1028.11
2019-02-25T12:07:09.699Z,1028.1
2019-02-25T12:07:52.289Z,1028.12
2019-02-25T12:08:32.698Z,1028.11
2019-02-25T12:09:13.130Z,1028.13
2019-02-25T12:09:53.500Z,1028.1
2019-02-25T12:10:33.896Z,1028.08
2019-02-25T12:11:14.331Z,1028.04
2019-02-25T12:11:54.735Z,1028.06
2019-02-25T12:13:50.379Z,1028.03
2019-02-25T12:14:31.043Z,1028
2019-02-25T12:15:11.739Z,1028.02
2019-02-25T12:15:52.212Z,1028.07
2019-02-25T12:16:33.587Z,1028.09
2019-02-25T12:17:15.938Z,1028.09
2019-02-25T12:17:56.403Z,1028.06
2019-02-25T12:18:36.756Z,1028.08
2019-02-25T12:19:18.038Z,1028.14
2019-02-25T12:19:57.565Z,1028.09
2019-02-25T12:20:37.936Z,1028.06
2019-02-25T12:21:18.357Z,1028.1
2019-02-25T12:21:58.734Z,1028.07
2019-02-25T12:22:39.197Z,1028.03
2019-02-25T12:23:19.804Z,1028.02
2019-02-25T12:24:00.346Z,1028.07
2019-02-25T12:24:41.316Z,1028.04
2019-02-25T12:25:21.725Z,1028.02
2019-02-25T12:26:03.216Z,1028.03
2019-02-25T12:26:43.921Z,1028.04
2019-02-25T12:27:24.525Z,1028
2019-02-25T12:28:05.282Z,1028.01
2019-02-25T12:28:46.904Z,1027.96
2019-02-25T12:29:27.379Z,1028
2019-02-25T12:30:07.774Z,1027.96
2019-02-25T12:30:48.175Z,1028.02
2019-02-25T12:31:28.609Z,1027.96
2019-02-25T12:32:09.001Z,1027.94
2019-02-25T12:32:49.391Z,1027.95
2019-02-25T12:33:29.854Z,1027.92
2019-02-25T12:34:10.308Z,1027.9
2019-02-25T12:34:50.664Z,1027.9
2019-02-25T12:35:31.088Z,1027.89
2019-02-25T12:37:23.668Z,1027.9
2019-02-25T12:38:04.139Z,1027.88
2019-02-25T12:38:45.538Z,1027.96
2019-02-25T12:39:25.961Z,1027.93
2019-02-25T12:40:06.337Z,1027.92
2019-02-25T12:40:46.781Z,1027.92
2019-02-25T12:41:27.474Z,1027.89
2019-02-25T12:42:07.656Z,1027.89
2019-02-25T12:42:48.010Z,1027.89
2019-02-25T12:43:28.437Z,1027.87
2019-02-25T12:44:08.908Z,1027.85
2019-02-25T12:44:49.264Z,1027.82
2019-02-25T12:45:29.682Z,1027.85
2019-02-25T12:46:10.098Z,1027.84
2019-02-25T12:48:08.452Z,1027.81
2019-02-25T12:48:48.849Z,1027.81
2019-02-25T12:49:29.269Z,1027.79
2019-02-25T12:50:09.681Z,1027.82
2019-02-25T12:50:50.099Z,1027.79
2019-02-25T12:51:30.531Z,1027.76